TimeMST,TemperatureF,Dew PointF,Humidity,Sea Level PressureIn,VisibilityMPH,Wind Direction,Wind SpeedMPH,Gust SpeedMPH,PrecipitationIn,Events,Conditions,WindDirDegrees,DateUTC
12:53 AM,19.4,17.6,93,30.24,10.0,ENE,3.5,-,N/A,,Clear,60,2013-03-01 07:53:00
1:53 AM,19.0,17.1,92,30.35,8.0,WSW,4.6,-,N/A,,Clear,240,2013-03-01 08:53:00
2:53 AM,19.0,16.0,88,30.33,8.0,Calm,Calm,-,N/A,,Clear,0,2013-03-01 09:53:00
3:53 AM,19.9,16.0,85,30.33,8.0,Calm,Calm,-,N/A,,Clear,0,2013-03-01 10:53:00
4:53 AM,19.0,16.0,88,30.35,9.0,Calm,Calm,-,N/A,,Clear,0,2013-03-01 11:53:00
5:53 AM,18.0,15.1,88,30.35,9.0,ENE,4.6,-,N/A,,Clear,70,2013-03-01 12:53:00
6:53 AM,19.9,17.1,89,30.35,7.0,ENE,4.6,-,N/A,,Clear,70,2013-03-01 13:53:00
7:53 AM,21.0,18.0,88,30.35,7.0,ENE,5.8,-,N/A,,Mostly Cloudy,70,2013-03-01 14:53:00
8:53 AM,23.0,19.9,88,30.33,8.0,East,6.9,-,N/A,,Overcast,80,2013-03-01 15:53:00
9:53 AM,24.8,21.2,86,30.21,9.0,ENE,9.2,-,N/A,,Overcast,70,2013-03-01 16:53:00
10:53 AM,28.0,25.0,88,30.27,8.0,ENE,10.4,-,N/A,,Overcast,70,2013-03-01 17:53:00
11:53 AM,33.1,28.0,82,30.26,10.0,East,6.9,-,N/A,,Overcast,80,2013-03-01 18:53:00
12:53 PM,39.0,30.0,70,30.21,10.0,East,5.8,-,N/A,,Clear,80,2013-03-01 19:53:00
1:53 PM,45.0,28.9,53,30.17,10.0,Variable,3.5,-,N/A,,Clear,0,2013-03-01 20:53:00
2:53 PM,48.2,30.2,50,30.08,10.0,SW,9.2,-,N/A,,Clear,230,2013-03-01 21:53:00
3:53 PM,48.0,30.0,50,30.15,10.0,WSW,6.9,-,N/A,,Clear,250,2013-03-01 22:53:00
4:53 PM,48.9,30.9,50,30.14,10.0,Calm,Calm,-,N/A,,Clear,0,2013-03-01 23:53:00
5:53 PM,43.0,30.0,60,30.15,10.0,Calm,Calm,-,N/A,,Clear,0,2013-03-02 00:53:00
6:53 PM,35.1,28.9,78,30.15,10.0,ENE,3.5,-,N/A,,Clear,60,2013-03-02 01:53:00
7:53 PM,33.1,28.0,82,30.15,10.0,Calm,Calm,-,N/A,,Clear,0,2013-03-02 02:53:00
8:53 PM,30.9,28.0,89,30.14,10.0,Calm,Calm,-,N/A,,Clear,0,2013-03-02 03:53:00
9:53 PM,30.0,27.0,88,30.13,10.0,West,4.6,-,N/A,,Clear,270,2013-03-02 04:53:00
10:53 PM,33.1,28.0,82,30.13,10.0,SW,8.1,-,N/A,,Clear,230,2013-03-02 05:53:00
11:53 PM,33.1,28.0,82,30.11,10.0,SW,8.1,-,N/A,,Clear,230,2013-03-02 06:53:00